CheckWX is a tool to help pilots better visualize weather data.  It is not intended as a substitute for an official pre-flight weather briefing.

03:03:35 UTC

1S5 METAR
Sunnyside Municipal Airport
Sunnyside, Washington, USA
Current

29 mins ago

K1S5 170235Z AUTO 24011KT 10SM CLR 07/M02 A3015 RMK AO2 T00681020
Observed
Feb-17 @ 02:35 UTC
Wind
  • 240° at 11 KTS
Visibility
10 SM
Flight Rules
VFR
Cloud Levels
  • Clear skies
Temperature
C / 45°F
Dewpoint
-2°C / 28°F
Humidity
53%
Altimeter
30.15" Hg
Pressure
1021.02 hPa
Previous

49 mins ago

K1S5 170215Z AUTO 24015G20KT 10SM SCT060 SCT075 BKN085 08/M02 A3014 RMK AO2 T00781024
Observed
Feb-17 @ 02:15 UTC
Wind
  • 240° at 15 KTS
  • Gusting to 20 KTS
Visibility
10 SM
Flight Rules
VFR
Cloud Levels
  • Scattered at 6,000' AGL
  • Scattered at 7,500' AGL
  • Broken at 8,500' AGL
Temperature
C / 46°F
Dewpoint
-2°C / 28°F
Humidity
50%
Altimeter
30.14" Hg
Pressure
1020.62 hPa
Previous

1 hour ago

K1S5 170155Z AUTO 26013KT 10SM BKN070 OVC080 09/M03 A3013 RMK AO2 T00911034
Observed
Feb-17 @ 01:55 UTC
Wind
  • 260° at 13 KTS
Visibility
10 SM
Flight Rules
VFR
Cloud Levels
  • Broken at 7,000' AGL
  • Overcast at 8,000' AGL
Temperature
C / 48°F
Dewpoint
-3°C / 27°F
Humidity
43%
Altimeter
30.13" Hg
Pressure
1020.32 hPa